sensor_id;sensor_type;location;lat;lon;timestamp;P1;durP1;ratioP1;P2;durP2;ratioP2
16642;SDS011;8435;52.184;5.406;2023-07-29T00:01:59;1.40;;;1.30;;
16642;SDS011;8435;52.184;5.406;2023-07-29T00:04:26;2.00;;;1.30;;
16642;SDS011;8435;52.184;5.406;2023-07-29T00:06:52;1.58;;;1.20;;
16642;SDS011;8435;52.184;5.406;2023-07-29T00:09:19;1.30;;;1.20;;
16642;SDS011;8435;52.184;5.406;2023-07-29T00:11:46;1.75;;;1.20;;
16642;SDS011;8435;52.184;5.406;2023-07-29T00:14:14;1.45;;;1.15;;
16642;SDS011;8435;52.184;5.406;2023-07-29T00:16:41;0.90;;;0.90;;
16642;SDS011;8435;52.184;5.406;2023-07-29T00:19:10;1.20;;;1.10;;
16642;SDS011;8435;52.184;5.406;2023-07-29T00:21:39;1.25;;;1.15;;
16642;SDS011;8435;52.184;5.406;2023-07-29T00:24:08;2.25;;;1.17;;
16642;SDS011;8435;52.184;5.406;2023-07-29T00:26:37;1.13;;;1.00;;
16642;SDS011;8435;52.184;5.406;2023-07-29T00:29:04;2.35;;;1.20;;
16642;SDS011;8435;52.184;5.406;2023-07-29T00:31:32;1.83;;;1.30;;
16642;SDS011;8435;52.184;5.406;2023-07-29T00:33:59;0.90;;;0.90;;
16642;SDS011;8435;52.184;5.406;2023-07-29T00:36:28;1.30;;;1.20;;
16642;SDS011;8435;52.184;5.406;2023-07-29T00:38:55;1.23;;;1.10;;
16642;SDS011;8435;52.184;5.406;2023-07-29T00:41:22;2.10;;;1.10;;
16642;SDS011;8435;52.184;5.406;2023-07-29T00:43:50;1.92;;;0.90;;
16642;SDS011;8435;52.184;5.406;2023-07-29T00:46:20;1.02;;;0.95;;
16642;SDS011;8435;52.184;5.406;2023-07-29T00:48:50;1.27;;;1.10;;
16642;SDS011;8435;52.184;5.406;2023-07-29T00:51:20;3.67;;;1.20;;
16642;SDS011;8435;52.184;5.406;2023-07-29T00:53:47;1.42;;;1.30;;
16642;SDS011;8435;52.184;5.406;2023-07-29T00:56:14;1.33;;;1.23;;
16642;SDS011;8435;52.184;5.406;2023-07-29T00:58:41;1.10;;;1.00;;
16642;SDS011;8435;52.184;5.406;2023-07-29T01:01:08;1.13;;;0.90;;
16642;SDS011;8435;52.184;5.406;2023-07-29T01:03:35;1.35;;;1.05;;
16642;SDS011;8435;52.184;5.406;2023-07-29T01:06:08;1.13;;;1.10;;
16642;SDS011;8435;52.184;5.406;2023-07-29T01:08:46;1.48;;;1.10;;
16642;SDS011;8435;52.184;5.406;2023-07-29T01:11:20;2.47;;;1.00;;
16642;SDS011;8435;52.184;5.406;2023-07-29T01:14:01;1.65;;;1.10;;
16642;SDS011;8435;52.184;5.406;2023-07-29T01:16:34;1.50;;;1.15;;
16642;SDS011;8435;52.184;5.406;2023-07-29T01:19:07;1.65;;;1.25;;
16642;SDS011;8435;52.184;5.406;2023-07-29T01:21:47;1.60;;;1.17;;
16642;SDS011;8435;52.184;5.406;2023-07-29T01:24:15;2.47;;;1.63;;
16642;SDS011;8435;52.184;5.406;2023-07-29T01:26:42;1.30;;;1.20;;
16642;SDS011;8435;52.184;5.406;2023-07-29T01:29:09;1.25;;;1.15;;
16642;SDS011;8435;52.184;5.406;2023-07-29T01:31:37;1.42;;;1.33;;
16642;SDS011;8435;52.184;5.406;2023-07-29T01:34:09;1.42;;;1.23;;
16642;SDS011;8435;52.184;5.406;2023-07-29T01:36:40;1.77;;;1.50;;
16642;SDS011;8435;52.184;5.406;2023-07-29T01:39:13;2.58;;;1.42;;
16642;SDS011;8435;52.184;5.406;2023-07-29T01:41:43;1.50;;;1.40;;
16642;SDS011;8435;52.184;5.406;2023-07-29T01:44:10;2.75;;;1.50;;
16642;SDS011;8435;52.184;5.406;2023-07-29T01:46:38;2.08;;;1.88;;
16642;SDS011;8435;52.184;5.406;2023-07-29T01:49:05;1.98;;;1.77;;
16642;SDS011;8435;52.184;5.406;2023-07-29T01:51:32;2.17;;;2.00;;
16642;SDS011;8435;52.184;5.406;2023-07-29T01:53:59;2.72;;;1.80;;
16642;SDS011;8435;52.184;5.406;2023-07-29T01:56:27;2.85;;;2.45;;
16642;SDS011;8435;52.184;5.406;2023-07-29T01:58:54;5.40;;;3.70;;
16642;SDS011;8435;52.184;5.406;2023-07-29T02:01:21;3.38;;;2.83;;
16642;SDS011;8435;52.184;5.406;2023-07-29T02:03:48;3.30;;;3.00;;
16642;SDS011;8435;52.184;5.406;2023-07-29T02:06:19;3.70;;;2.90;;
16642;SDS011;8435;52.184;5.406;2023-07-29T02:08:50;3.20;;;2.90;;
16642;SDS011;8435;52.184;5.406;2023-07-29T02:11:17;3.45;;;3.15;;
16642;SDS011;8435;52.184;5.406;2023-07-29T02:13:46;5.30;;;3.05;;
16642;SDS011;8435;52.184;5.406;2023-07-29T02:16:13;4.35;;;2.92;;
16642;SDS011;8435;52.184;5.406;2023-07-29T02:18:40;3.63;;;2.90;;
16642;SDS011;8435;52.184;5.406;2023-07-29T02:21:07;8.88;;;3.10;;
16642;SDS011;8435;52.184;5.406;2023-07-29T02:23:34;3.97;;;2.80;;
16642;SDS011;8435;52.184;5.406;2023-07-29T02:26:01;3.38;;;2.80;;
16642;SDS011;8435;52.184;5.406;2023-07-29T02:28:27;2.45;;;2.25;;
16642;SDS011;8435;52.184;5.406;2023-07-29T02:31:12;3.50;;;3.00;;
16642;SDS011;8435;52.184;5.406;2023-07-29T02:33:41;2.78;;;2.53;;
16642;SDS011;8435;52.184;5.406;2023-07-29T02:36:08;3.13;;;2.63;;
16642;SDS011;8435;52.184;5.406;2023-07-29T02:38:35;3.00;;;2.70;;
16642;SDS011;8435;52.184;5.406;2023-07-29T02:41:02;3.38;;;2.78;;
16642;SDS011;8435;52.184;5.406;2023-07-29T02:43:29;5.78;;;3.47;;
16642;SDS011;8435;52.184;5.406;2023-07-29T02:45:56;4.60;;;3.25;;
16642;SDS011;8435;52.184;5.406;2023-07-29T02:48:25;4.45;;;3.47;;
16642;SDS011;8435;52.184;5.406;2023-07-29T02:50:53;3.55;;;3.00;;
16642;SDS011;8435;52.184;5.406;2023-07-29T02:53:22;3.33;;;3.03;;
16642;SDS011;8435;52.184;5.406;2023-07-29T02:55:49;4.32;;;3.30;;
16642;SDS011;8435;52.184;5.406;2023-07-29T02:58:15;4.13;;;3.10;;
16642;SDS011;8435;52.184;5.406;2023-07-29T03:00:42;6.28;;;2.88;;
16642;SDS011;8435;52.184;5.406;2023-07-29T03:03:09;6.65;;;3.00;;
16642;SDS011;8435;52.184;5.406;2023-07-29T03:05:38;3.60;;;3.20;;
16642;SDS011;8435;52.184;5.406;2023-07-29T03:08:04;3.83;;;2.95;;
16642;SDS011;8435;52.184;5.406;2023-07-29T03:10:34;3.30;;;3.00;;
16642;SDS011;8435;52.184;5.406;2023-07-29T03:13:01;4.30;;;2.90;;
16642;SDS011;8435;52.184;5.406;2023-07-29T03:15:27;3.72;;;3.22;;
16642;SDS011;8435;52.184;5.406;2023-07-29T03:17:54;4.63;;;3.25;;
16642;SDS011;8435;52.184;5.406;2023-07-29T03:20:21;5.95;;;3.05;;
16642;SDS011;8435;52.184;5.406;2023-07-29T03:22:49;3.15;;;2.65;;
16642;SDS011;8435;52.184;5.406;2023-07-29T03:25:16;3.85;;;3.00;;
16642;SDS011;8435;52.184;5.406;2023-07-29T03:27:46;3.33;;;2.63;;
16642;SDS011;8435;52.184;5.406;2023-07-29T03:30:18;4.30;;;2.85;;
16642;SDS011;8435;52.184;5.406;2023-07-29T03:32:45;3.90;;;2.80;;
16642;SDS011;8435;52.184;5.406;2023-07-29T03:35:12;4.95;;;3.00;;
16642;SDS011;8435;52.184;5.406;2023-07-29T03:37:39;3.05;;;2.35;;
16642;SDS011;8435;52.184;5.406;2023-07-29T03:40:11;3.78;;;2.60;;
16642;SDS011;8435;52.184;5.406;2023-07-29T03:42:38;3.20;;;2.60;;
16642;SDS011;8435;52.184;5.406;2023-07-29T03:45:05;3.75;;;2.47;;
16642;SDS011;8435;52.184;5.406;2023-07-29T03:47:32;2.70;;;2.50;;
16642;SDS011;8435;52.184;5.406;2023-07-29T03:49:59;3.20;;;2.42;;
16642;SDS011;8435;52.184;5.406;2023-07-29T03:52:26;2.42;;;2.00;;
16642;SDS011;8435;52.184;5.406;2023-07-29T03:54:52;2.67;;;2.47;;
16642;SDS011;8435;52.184;5.406;2023-07-29T03:57:21;2.95;;;2.17;;
16642;SDS011;8435;52.184;5.406;2023-07-29T03:59:48;2.72;;;2.50;;
16642;SDS011;8435;52.184;5.406;2023-07-29T04:02:17;3.92;;;2.75;;
16642;SDS011;8435;52.184;5.406;2023-07-29T04:04:44;4.18;;;2.42;;
16642;SDS011;8435;52.184;5.406;2023-07-29T04:07:12;3.40;;;2.45;;
16642;SDS011;8435;52.184;5.406;2023-07-29T04:09:39;3.05;;;2.28;;
16642;SDS011;8435;52.184;5.406;2023-07-29T04:12:08;2.28;;;2.13;;
16642;SDS011;8435;52.184;5.406;2023-07-29T04:14:36;2.50;;;2.28;;
16642;SDS011;8435;52.184;5.406;2023-07-29T04:17:03;2.67;;;2.10;;
16642;SDS011;8435;52.184;5.406;2023-07-29T04:19:30;3.05;;;2.03;;
16642;SDS011;8435;52.184;5.406;2023-07-29T04:21:57;2.65;;;2.45;;
16642;SDS011;8435;52.184;5.406;2023-07-29T04:24:27;4.53;;;2.45;;
16642;SDS011;8435;52.184;5.406;2023-07-29T04:26:54;3.10;;;2.55;;
16642;SDS011;8435;52.184;5.406;2023-07-29T04:29:21;2.50;;;2.30;;
16642;SDS011;8435;52.184;5.406;2023-07-29T04:31:50;2.88;;;2.40;;
16642;SDS011;8435;52.184;5.406;2023-07-29T04:34:17;2.50;;;2.30;;
16642;SDS011;8435;52.184;5.406;2023-07-29T04:36:44;3.08;;;2.60;;
16642;SDS011;8435;52.184;5.406;2023-07-29T04:39:13;3.47;;;2.38;;
16642;SDS011;8435;52.184;5.406;2023-07-29T04:41:43;2.67;;;2.20;;
16642;SDS011;8435;52.184;5.406;2023-07-29T04:44:10;2.50;;;2.30;;
16642;SDS011;8435;52.184;5.406;2023-07-29T04:46:37;3.22;;;2.60;;
16642;SDS011;8435;52.184;5.406;2023-07-29T04:49:05;2.97;;;2.67;;
16642;SDS011;8435;52.184;5.406;2023-07-29T04:51:32;2.55;;;2.10;;
16642;SDS011;8435;52.184;5.406;2023-07-29T04:53:59;2.97;;;2.30;;
16642;SDS011;8435;52.184;5.406;2023-07-29T04:56:26;3.35;;;2.45;;
16642;SDS011;8435;52.184;5.406;2023-07-29T04:58:52;4.30;;;2.40;;
16642;SDS011;8435;52.184;5.406;2023-07-29T05:01:24;2.55;;;2.35;;
16642;SDS011;8435;52.184;5.406;2023-07-29T05:03:51;3.15;;;2.47;;
16642;SDS011;8435;52.184;5.406;2023-07-29T05:06:19;2.30;;;2.10;;
16642;SDS011;8435;52.184;5.406;2023-07-29T05:08:46;3.70;;;1.95;;
16642;SDS011;8435;52.184;5.406;2023-07-29T05:11:13;2.60;;;2.25;;
16642;SDS011;8435;52.184;5.406;2023-07-29T05:13:40;3.47;;;2.38;;
16642;SDS011;8435;52.184;5.406;2023-07-29T05:16:09;2.65;;;2.08;;
16642;SDS011;8435;52.184;5.406;2023-07-29T05:18:35;2.20;;;2.08;;
16642;SDS011;8435;52.184;5.406;2023-07-29T05:21:02;2.35;;;2.08;;
16642;SDS011;8435;52.184;5.406;2023-07-29T05:23:30;2.58;;;2.30;;
16642;SDS011;8435;52.184;5.406;2023-07-29T05:25:57;2.67;;;1.98;;
16642;SDS011;8435;52.184;5.406;2023-07-29T05:28:24;2.20;;;2.00;;
16642;SDS011;8435;52.184;5.406;2023-07-29T05:30:51;1.98;;;1.85;;
16642;SDS011;8435;52.184;5.406;2023-07-29T05:33:18;2.30;;;2.03;;
16642;SDS011;8435;52.184;5.406;2023-07-29T05:35:45;3.72;;;2.53;;
16642;SDS011;8435;52.184;5.406;2023-07-29T05:38:15;2.70;;;2.03;;
16642;SDS011;8435;52.184;5.406;2023-07-29T05:40:43;3.50;;;2.40;;
16642;SDS011;8435;52.184;5.406;2023-07-29T05:43:10;3.10;;;2.80;;
16642;SDS011;8435;52.184;5.406;2023-07-29T05:45:37;3.72;;;2.50;;
16642;SDS011;8435;52.184;5.406;2023-07-29T05:48:04;3.00;;;2.70;;
16642;SDS011;8435;52.184;5.406;2023-07-29T05:50:31;4.05;;;2.20;;
16642;SDS011;8435;52.184;5.406;2023-07-29T05:52:59;5.63;;;2.60;;
16642;SDS011;8435;52.184;5.406;2023-07-29T05:55:26;2.60;;;2.13;;
16642;SDS011;8435;52.184;5.406;2023-07-29T05:57:54;4.22;;;2.50;;
16642;SDS011;8435;52.184;5.406;2023-07-29T06:00:23;3.00;;;2.55;;
16642;SDS011;8435;52.184;5.406;2023-07-29T06:02:50;3.30;;;3.10;;
16642;SDS011;8435;52.184;5.406;2023-07-29T06:05:17;4.10;;;2.67;;
16642;SDS011;8435;52.184;5.406;2023-07-29T06:07:44;4.03;;;3.30;;
16642;SDS011;8435;52.184;5.406;2023-07-29T06:10:12;4.00;;;2.65;;
16642;SDS011;8435;52.184;5.406;2023-07-29T06:12:44;3.50;;;3.20;;
16642;SDS011;8435;52.184;5.406;2023-07-29T06:15:12;3.88;;;2.80;;
16642;SDS011;8435;52.184;5.406;2023-07-29T06:17:39;2.80;;;2.60;;
16642;SDS011;8435;52.184;5.406;2023-07-29T06:20:07;3.55;;;2.90;;
16642;SDS011;8435;52.184;5.406;2023-07-29T06:22:34;4.78;;;2.95;;
16642;SDS011;8435;52.184;5.406;2023-07-29T06:25:01;2.33;;;2.13;;
16642;SDS011;8435;52.184;5.406;2023-07-29T06:27:30;2.38;;;2.17;;
16642;SDS011;8435;52.184;5.406;2023-07-29T06:29:57;3.95;;;3.20;;
16642;SDS011;8435;52.184;5.406;2023-07-29T06:32:26;3.20;;;2.85;;
16642;SDS011;8435;52.184;5.406;2023-07-29T06:34:55;3.25;;;2.95;;
16642;SDS011;8435;52.184;5.406;2023-07-29T06:37:22;5.20;;;2.53;;
16642;SDS011;8435;52.184;5.406;2023-07-29T06:39:49;3.38;;;2.97;;
16642;SDS011;8435;52.184;5.406;2023-07-29T06:42:15;4.20;;;2.65;;
16642;SDS011;8435;52.184;5.406;2023-07-29T06:44:42;3.72;;;2.70;;
16642;SDS011;8435;52.184;5.406;2023-07-29T06:47:12;3.33;;;2.75;;
16642;SDS011;8435;52.184;5.406;2023-07-29T06:49:43;3.28;;;2.97;;
16642;SDS011;8435;52.184;5.406;2023-07-29T06:52:12;4.53;;;2.88;;
16642;SDS011;8435;52.184;5.406;2023-07-29T06:54:38;3.67;;;2.95;;
16642;SDS011;8435;52.184;5.406;2023-07-29T06:57:06;3.92;;;2.85;;
16642;SDS011;8435;52.184;5.406;2023-07-29T06:59:33;4.28;;;3.28;;
16642;SDS011;8435;52.184;5.406;2023-07-29T07:02:01;3.38;;;3.08;;
16642;SDS011;8435;52.184;5.406;2023-07-29T07:04:28;3.92;;;3.53;;
16642;SDS011;8435;52.184;5.406;2023-07-29T07:06:59;4.25;;;3.80;;
16642;SDS011;8435;52.184;5.406;2023-07-29T07:09:28;5.75;;;3.63;;
16642;SDS011;8435;52.184;5.406;2023-07-29T07:11:55;4.97;;;4.40;;
16642;SDS011;8435;52.184;5.406;2023-07-29T07:14:23;5.03;;;3.83;;
16642;SDS011;8435;52.184;5.406;2023-07-29T07:16:50;3.47;;;3.17;;
16642;SDS011;8435;52.184;5.406;2023-07-29T07:19:17;4.68;;;4.25;;
16642;SDS011;8435;52.184;5.406;2023-07-29T07:21:47;5.47;;;4.90;;
16642;SDS011;8435;52.184;5.406;2023-07-29T07:24:16;4.20;;;3.83;;
16642;SDS011;8435;52.184;5.406;2023-07-29T07:26:43;4.85;;;4.07;;
16642;SDS011;8435;52.184;5.406;2023-07-29T07:29:10;4.35;;;3.95;;
16642;SDS011;8435;52.184;5.406;2023-07-29T07:31:37;3.70;;;3.40;;
16642;SDS011;8435;52.184;5.406;2023-07-29T07:34:05;3.67;;;3.30;;
16642;SDS011;8435;52.184;5.406;2023-07-29T07:36:32;3.33;;;3.03;;
16642;SDS011;8435;52.184;5.406;2023-07-29T07:38:59;5.47;;;3.10;;
16642;SDS011;8435;52.184;5.406;2023-07-29T07:41:28;4.00;;;3.60;;
16642;SDS011;8435;52.184;5.406;2023-07-29T07:43:55;4.22;;;3.55;;
16642;SDS011;8435;52.184;5.406;2023-07-29T07:46:22;4.70;;;3.63;;
16642;SDS011;8435;52.184;5.406;2023-07-29T07:48:48;5.25;;;3.58;;
16642;SDS011;8435;52.184;5.406;2023-07-29T07:51:15;3.92;;;3.63;;
16642;SDS011;8435;52.184;5.406;2023-07-29T07:53:42;4.30;;;3.92;;
16642;SDS011;8435;52.184;5.406;2023-07-29T07:56:09;3.58;;;3.33;;
16642;SDS011;8435;52.184;5.406;2023-07-29T07:58:37;5.45;;;3.67;;
16642;SDS011;8435;52.184;5.406;2023-07-29T08:01:05;4.07;;;3.67;;
16642;SDS011;8435;52.184;5.406;2023-07-29T08:03:32;3.92;;;3.60;;
16642;SDS011;8435;52.184;5.406;2023-07-29T08:05:59;4.50;;;3.65;;
16642;SDS011;8435;52.184;5.406;2023-07-29T08:08:26;3.75;;;3.45;;
16642;SDS011;8435;52.184;5.406;2023-07-29T08:10:54;3.97;;;3.67;;
16642;SDS011;8435;52.184;5.406;2023-07-29T08:13:22;4.40;;;3.63;;
16642;SDS011;8435;52.184;5.406;2023-07-29T08:15:51;3.90;;;3.60;;
16642;SDS011;8435;52.184;5.406;2023-07-29T08:18:18;4.05;;;3.80;;
16642;SDS011;8435;52.184;5.406;2023-07-29T08:20:52;3.83;;;3.55;;
16642;SDS011;8435;52.184;5.406;2023-07-29T08:23:20;3.88;;;3.58;;
16642;SDS011;8435;52.184;5.406;2023-07-29T08:25:50;5.40;;;3.92;;
16642;SDS011;8435;52.184;5.406;2023-07-29T08:28:18;3.47;;;3.28;;
16642;SDS011;8435;52.184;5.406;2023-07-29T08:30:46;4.00;;;3.70;;
16642;SDS011;8435;52.184;5.406;2023-07-29T08:33:17;4.07;;;3.75;;
16642;SDS011;8435;52.184;5.406;2023-07-29T08:35:44;3.65;;;3.45;;
16642;SDS011;8435;52.184;5.406;2023-07-29T08:38:10;3.38;;;3.10;;
16642;SDS011;8435;52.184;5.406;2023-07-29T08:40:38;3.13;;;2.90;;
16642;SDS011;8435;52.184;5.406;2023-07-29T08:43:09;4.07;;;2.63;;
16642;SDS011;8435;52.184;5.406;2023-07-29T08:45:40;2.72;;;2.45;;
16642;SDS011;8435;52.184;5.406;2023-07-29T08:48:10;5.25;;;2.80;;
16642;SDS011;8435;52.184;5.406;2023-07-29T08:50:38;2.78;;;2.58;;
16642;SDS011;8435;52.184;5.406;2023-07-29T08:53:07;2.70;;;2.50;;
16642;SDS011;8435;52.184;5.406;2023-07-29T08:55:34;3.00;;;2.55;;
16642;SDS011;8435;52.184;5.406;2023-07-29T08:58:01;2.95;;;2.67;;
16642;SDS011;8435;52.184;5.406;2023-07-29T09:00:29;2.58;;;2.33;;
16642;SDS011;8435;52.184;5.406;2023-07-29T09:02:56;2.88;;;2.50;;
16642;SDS011;8435;52.184;5.406;2023-07-29T09:05:27;2.75;;;2.42;;
16642;SDS011;8435;52.184;5.406;2023-07-29T09:07:55;2.63;;;2.42;;
16642;SDS011;8435;52.184;5.406;2023-07-29T09:10:22;3.13;;;2.53;;
16642;SDS011;8435;52.184;5.406;2023-07-29T09:12:52;2.85;;;2.63;;
16642;SDS011;8435;52.184;5.406;2023-07-29T09:15:28;2.50;;;2.40;;
16642;SDS011;8435;52.184;5.406;2023-07-29T09:17:57;2.70;;;2.50;;
16642;SDS011;8435;52.184;5.406;2023-07-29T09:20:24;2.58;;;2.38;;
16642;SDS011;8435;52.184;5.406;2023-07-29T09:22:53;2.97;;;2.65;;
16642;SDS011;8435;52.184;5.406;2023-07-29T09:25:25;2.75;;;2.50;;
16642;SDS011;8435;52.184;5.406;2023-07-29T09:27:52;2.88;;;2.50;;
16642;SDS011;8435;52.184;5.406;2023-07-29T09:30:24;2.88;;;2.67;;
16642;SDS011;8435;52.184;5.406;2023-07-29T09:32:52;2.55;;;2.35;;
16642;SDS011;8435;52.184;5.406;2023-07-29T09:35:21;3.58;;;2.80;;
16642;SDS011;8435;52.184;5.406;2023-07-29T09:37:49;2.42;;;2.33;;
16642;SDS011;8435;52.184;5.406;2023-07-29T09:40:17;2.67;;;2.28;;
16642;SDS011;8435;52.184;5.406;2023-07-29T09:42:48;2.20;;;2.10;;
16642;SDS011;8435;52.184;5.406;2023-07-29T09:45:20;2.53;;;2.33;;
16642;SDS011;8435;52.184;5.406;2023-07-29T09:47:47;2.08;;;1.98;;
16642;SDS011;8435;52.184;5.406;2023-07-29T09:50:17;2.55;;;2.35;;
16642;SDS011;8435;52.184;5.406;2023-07-29T09:52:44;2.60;;;2.40;;
16642;SDS011;8435;52.184;5.406;2023-07-29T09:55:13;3.00;;;2.63;;
16642;SDS011;8435;52.184;5.406;2023-07-29T09:57:44;2.50;;;2.30;;
16642;SDS011;8435;52.184;5.406;2023-07-29T10:00:13;2.80;;;2.50;;
16642;SDS011;8435;52.184;5.406;2023-07-29T10:02:40;2.78;;;2.60;;
16642;SDS011;8435;52.184;5.406;2023-07-29T10:05:10;2.50;;;2.30;;
16642;SDS011;8435;52.184;5.406;2023-07-29T10:07:38;2.70;;;2.50;;
16642;SDS011;8435;52.184;5.406;2023-07-29T10:10:06;3.55;;;2.30;;
16642;SDS011;8435;52.184;5.406;2023-07-29T10:12:34;2.95;;;2.55;;
16642;SDS011;8435;52.184;5.406;2023-07-29T10:15:02;2.40;;;2.20;;
16642;SDS011;8435;52.184;5.406;2023-07-29T10:17:33;2.42;;;2.22;;
16642;SDS011;8435;52.184;5.406;2023-07-29T10:20:01;2.40;;;2.20;;
16642;SDS011;8435;52.184;5.406;2023-07-29T10:22:32;1.90;;;1.80;;
16642;SDS011;8435;52.184;5.406;2023-07-29T10:25:02;2.22;;;2.03;;
16642;SDS011;8435;52.184;5.406;2023-07-29T10:27:31;2.28;;;2.08;;
16642;SDS011;8435;52.184;5.406;2023-07-29T10:30:06;3.28;;;2.33;;
16642;SDS011;8435;52.184;5.406;2023-07-29T10:32:36;2.28;;;2.08;;
16642;SDS011;8435;52.184;5.406;2023-07-29T10:35:04;3.10;;;2.05;;
16642;SDS011;8435;52.184;5.406;2023-07-29T10:37:32;2.72;;;1.90;;
16642;SDS011;8435;52.184;5.406;2023-07-29T10:39:59;2.20;;;2.10;;
16642;SDS011;8435;52.184;5.406;2023-07-29T10:42:27;2.88;;;2.63;;
16642;SDS011;8435;52.184;5.406;2023-07-29T10:44:53;2.65;;;2.35;;
16642;SDS011;8435;52.184;5.406;2023-07-29T10:47:22;3.08;;;2.72;;
16642;SDS011;8435;52.184;5.406;2023-07-29T10:49:51;2.72;;;2.42;;
16642;SDS011;8435;52.184;5.406;2023-07-29T10:52:29;2.67;;;2.47;;
16642;SDS011;8435;52.184;5.406;2023-07-29T10:55:03;3.83;;;2.40;;
16642;SDS011;8435;52.184;5.406;2023-07-29T10:57:48;2.75;;;2.55;;
16642;SDS011;8435;52.184;5.406;2023-07-29T11:00:15;3.33;;;2.25;;
16642;SDS011;8435;52.184;5.406;2023-07-29T11:02:42;3.30;;;2.85;;
16642;SDS011;8435;52.184;5.406;2023-07-29T11:05:17;2.67;;;2.47;;
16642;SDS011;8435;52.184;5.406;2023-07-29T11:07:45;2.97;;;2.78;;
16642;SDS011;8435;52.184;5.406;2023-07-29T11:10:12;3.08;;;2.67;;
16642;SDS011;8435;52.184;5.406;2023-07-29T11:12:41;3.10;;;2.90;;
16642;SDS011;8435;52.184;5.406;2023-07-29T11:15:28;3.95;;;3.10;;
16642;SDS011;8435;52.184;5.406;2023-07-29T11:17:56;3.10;;;2.90;;
16642;SDS011;8435;52.184;5.406;2023-07-29T11:20:25;3.20;;;3.00;;
16642;SDS011;8435;52.184;5.406;2023-07-29T11:22:53;4.25;;;3.55;;
16642;SDS011;8435;52.184;5.406;2023-07-29T11:25:21;3.72;;;3.40;;
16642;SDS011;8435;52.184;5.406;2023-07-29T11:27:50;3.53;;;3.20;;
16642;SDS011;8435;52.184;5.406;2023-07-29T11:30:18;3.03;;;2.80;;
16642;SDS011;8435;52.184;5.406;2023-07-29T11:32:45;2.20;;;2.03;;
16642;SDS011;8435;52.184;5.406;2023-07-29T11:35:13;1.90;;;1.80;;
16642;SDS011;8435;52.184;5.406;2023-07-29T11:37:44;2.00;;;1.90;;
16642;SDS011;8435;52.184;5.406;2023-07-29T11:40:13;1.75;;;1.65;;
16642;SDS011;8435;52.184;5.406;2023-07-29T11:42:41;2.03;;;1.92;;
16642;SDS011;8435;52.184;5.406;2023-07-29T11:45:08;1.70;;;1.55;;
16642;SDS011;8435;52.184;5.406;2023-07-29T11:47:36;1.00;;;1.00;;
16642;SDS011;8435;52.184;5.406;2023-07-29T11:50:03;0.90;;;0.90;;
16642;SDS011;8435;52.184;5.406;2023-07-29T11:52:32;1.63;;;1.10;;
16642;SDS011;8435;52.184;5.406;2023-07-29T11:55:01;1.15;;;1.10;;
16642;SDS011;8435;52.184;5.406;2023-07-29T11:57:28;1.02;;;1.02;;
16642;SDS011;8435;52.184;5.406;2023-07-29T11:59:57;1.00;;;1.00;;
16642;SDS011;8435;52.184;5.406;2023-07-29T12:02:24;0.90;;;0.90;;
16642;SDS011;8435;52.184;5.406;2023-07-29T12:04:52;1.30;;;1.20;;
16642;SDS011;8435;52.184;5.406;2023-07-29T12:07:19;1.00;;;1.00;;
16642;SDS011;8435;52.184;5.406;2023-07-29T12:09:46;1.02;;;0.90;;
16642;SDS011;8435;52.184;5.406;2023-07-29T12:12:15;1.10;;;1.10;;
16642;SDS011;8435;52.184;5.406;2023-07-29T12:14:43;1.27;;;1.17;;
16642;SDS011;8435;52.184;5.406;2023-07-29T12:17:11;1.48;;;1.30;;
16642;SDS011;8435;52.184;5.406;2023-07-29T12:19:39;1.17;;;1.17;;
16642;SDS011;8435;52.184;5.406;2023-07-29T12:22:07;1.13;;;1.13;;
16642;SDS011;8435;52.184;5.406;2023-07-29T12:24:35;1.00;;;1.00;;
16642;SDS011;8435;52.184;5.406;2023-07-29T12:27:04;0.90;;;0.90;;
16642;SDS011;8435;52.184;5.406;2023-07-29T12:29:39;1.42;;;0.90;;
16642;SDS011;8435;52.184;5.406;2023-07-29T12:32:07;1.83;;;1.02;;
16642;SDS011;8435;52.184;5.406;2023-07-29T12:34:36;1.02;;;1.02;;
16642;SDS011;8435;52.184;5.406;2023-07-29T12:37:07;0.90;;;0.90;;
16642;SDS011;8435;52.184;5.406;2023-07-29T12:39:34;1.40;;;1.30;;
16642;SDS011;8435;52.184;5.406;2023-07-29T12:42:05;0.93;;;0.90;;
16642;SDS011;8435;52.184;5.406;2023-07-29T12:44:34;1.48;;;1.17;;
16642;SDS011;8435;52.184;5.406;2023-07-29T12:47:03;1.02;;;1.02;;
16642;SDS011;8435;52.184;5.406;2023-07-29T12:49:31;1.17;;;1.17;;
16642;SDS011;8435;52.184;5.406;2023-07-29T12:51:58;1.33;;;1.23;;
16642;SDS011;8435;52.184;5.406;2023-07-29T12:54:25;1.40;;;1.30;;
16642;SDS011;8435;52.184;5.406;2023-07-29T12:56:52;1.30;;;1.30;;
16642;SDS011;8435;52.184;5.406;2023-07-29T12:59:19;1.30;;;1.30;;
16642;SDS011;8435;52.184;5.406;2023-07-29T13:01:48;1.42;;;1.30;;
16642;SDS011;8435;52.184;5.406;2023-07-29T13:04:14;1.40;;;1.40;;
16642;SDS011;8435;52.184;5.406;2023-07-29T13:06:41;1.50;;;1.50;;
16642;SDS011;8435;52.184;5.406;2023-07-29T13:09:08;1.30;;;1.10;;
16642;SDS011;8435;52.184;5.406;2023-07-29T13:11:35;1.90;;;1.80;;
16642;SDS011;8435;52.184;5.406;2023-07-29T13:14:02;1.38;;;1.38;;
16642;SDS011;8435;52.184;5.406;2023-07-29T13:16:29;1.55;;;1.45;;
16642;SDS011;8435;52.184;5.406;2023-07-29T13:18:57;1.58;;;1.45;;
16642;SDS011;8435;52.184;5.406;2023-07-29T13:21:24;1.30;;;1.20;;
16642;SDS011;8435;52.184;5.406;2023-07-29T13:23:51;1.67;;;1.58;;
16642;SDS011;8435;52.184;5.406;2023-07-29T13:26:17;1.40;;;1.30;;
16642;SDS011;8435;52.184;5.406;2023-07-29T13:28:47;1.52;;;1.42;;
16642;SDS011;8435;52.184;5.406;2023-07-29T13:31:14;1.73;;;1.63;;
16642;SDS011;8435;52.184;5.406;2023-07-29T13:33:40;1.65;;;1.55;;
16642;SDS011;8435;52.184;5.406;2023-07-29T13:36:09;1.85;;;1.52;;
16642;SDS011;8435;52.184;5.406;2023-07-29T13:38:36;1.80;;;1.70;;
16642;SDS011;8435;52.184;5.406;2023-07-29T13:41:03;1.67;;;1.45;;
16642;SDS011;8435;52.184;5.406;2023-07-29T13:43:29;1.73;;;1.50;;
16642;SDS011;8435;52.184;5.406;2023-07-29T13:45:56;1.90;;;1.80;;
16642;SDS011;8435;52.184;5.406;2023-07-29T13:48:23;1.60;;;1.50;;
16642;SDS011;8435;52.184;5.406;2023-07-29T13:50:50;2.22;;;1.52;;
16642;SDS011;8435;52.184;5.406;2023-07-29T13:53:18;2.10;;;1.75;;
16642;SDS011;8435;52.184;5.406;2023-07-29T13:55:45;1.45;;;1.40;;
16642;SDS011;8435;52.184;5.406;2023-07-29T13:58:12;1.50;;;1.50;;
16642;SDS011;8435;52.184;5.406;2023-07-29T14:00:39;1.73;;;1.50;;
16642;SDS011;8435;52.184;5.406;2023-07-29T14:03:06;1.40;;;1.30;;
16642;SDS011;8435;52.184;5.406;2023-07-29T14:05:33;1.70;;;1.60;;
16642;SDS011;8435;52.184;5.406;2023-07-29T14:07:59;1.70;;;1.60;;
16642;SDS011;8435;52.184;5.406;2023-07-29T14:10:27;1.63;;;1.52;;
16642;SDS011;8435;52.184;5.406;2023-07-29T14:12:54;1.88;;;1.77;;
16642;SDS011;8435;52.184;5.406;2023-07-29T14:15:21;2.00;;;1.90;;
16642;SDS011;8435;52.184;5.406;2023-07-29T14:17:51;1.95;;;1.85;;
16642;SDS011;8435;52.184;5.406;2023-07-29T14:20:18;2.25;;;1.80;;
16642;SDS011;8435;52.184;5.406;2023-07-29T14:22:45;1.70;;;1.60;;
16642;SDS011;8435;52.184;5.406;2023-07-29T14:25:11;1.77;;;1.65;;
16642;SDS011;8435;52.184;5.406;2023-07-29T14:27:41;1.70;;;1.48;;
16642;SDS011;8435;52.184;5.406;2023-07-29T14:30:08;1.40;;;1.40;;
16642;SDS011;8435;52.184;5.406;2023-07-29T14:32:36;1.50;;;1.40;;
16642;SDS011;8435;52.184;5.406;2023-07-29T14:35:03;1.40;;;1.30;;
16642;SDS011;8435;52.184;5.406;2023-07-29T14:37:33;1.20;;;1.20;;
16642;SDS011;8435;52.184;5.406;2023-07-29T14:40:00;1.13;;;1.13;;
16642;SDS011;8435;52.184;5.406;2023-07-29T14:42:27;2.30;;;1.88;;
16642;SDS011;8435;52.184;5.406;2023-07-29T14:44:56;1.35;;;1.23;;
16642;SDS011;8435;52.184;5.406;2023-07-29T14:47:23;1.70;;;1.60;;
16642;SDS011;8435;52.184;5.406;2023-07-29T14:49:50;1.45;;;1.35;;
16642;SDS011;8435;52.184;5.406;2023-07-29T14:52:17;1.42;;;1.30;;
16642;SDS011;8435;52.184;5.406;2023-07-29T14:54:43;1.52;;;1.35;;
16642;SDS011;8435;52.184;5.406;2023-07-29T14:57:10;1.10;;;1.10;;
16642;SDS011;8435;52.184;5.406;2023-07-29T14:59:37;1.25;;;1.25;;
16642;SDS011;8435;52.184;5.406;2023-07-29T15:02:05;1.23;;;1.23;;
16642;SDS011;8435;52.184;5.406;2023-07-29T15:04:33;1.30;;;1.20;;
16642;SDS011;8435;52.184;5.406;2023-07-29T15:06:59;1.23;;;1.13;;